Saturday, May 26, 2018, 6:28 AM GMT
Back to Local

CYOW, Ottawa Int'L. Ont.

Location: , , Canada Lat: 45.317
Local Time: 6:28 AM GMT ( 6:28 GMT) Lon: -75.667
Time Zone: GMT Elev: 380 ft

Show me the last for .
Show Decoded

2018-05-26 06:00 METAR CYOW 260600Z 20004KT 15SM FEW055 OVC070 17/16 A2969 RMK SC2AC6 SLP054
                 DENSITY ALT 1000FT =
2018-05-26 05:00 METAR CYOW 260500Z 26003KT 15SM OVC068 17/16 A2970 RMK AC8 SLP057 DENSITY ALT
                 1000FT =
2018-05-26 04:00 METAR CYOW 260400Z 21005KT 15SM FEW050 BKN070 17/17 A2969 RMK SC1AC6 SLP057
                 DENSITY ALT 1000FT =
2018-05-26 03:00 METAR CYOW 260300Z 22004KT 15SM FEW050 BKN085 BKN150 17/17 A2970 RMK SC1AC5AC1
                 SLP058 DENSITY ALT 1000FT =
2018-05-26 02:00 METAR CYOW 260200Z 22005KT 15SM BKN052 18/17 A2971 RMK SC6 SLP061 DENSITY ALT
                 1100FT =
2018-05-26 01:00 METAR CYOW 260100Z 23007KT 15SM BKN055 BKN075 BKN100 19/17 A2970 RMK SC5AC1AC1
                 SLP060 DENSITY ALT 1200FT =
2018-05-26 00:00 METAR CYOW 260000Z 23010KT 15SM FEW055 BKN070 OVC100 19/17 A2970 RMK SC1AC4AC3
                 SLP060 DENSITY ALT 1200FT =
2018-05-25 23:38 METAR CYOW 252338Z 22008KT 15SM FEW045 BKN070 OVC120 19/18 A2971 RMK SC2AC4AC2
                 SLP061 DENSITY ALT 1200FT =
2018-05-25 23:19 METAR CYOW 252319Z 22007KT 5SM -RA BR SCT045 OVC080 18/18 A2972 RMK SC4AC4
                 SLP067 DENSITY ALT 1100FT =
2018-05-25 23:00 METAR CYOW 252300Z 22007KT 5SM -SHRA BR BKN045 OVC110 18/18 A2974 RMK SC6AC2
                 CVCTV CLD EMBD SLP071 DENSITY ALT 1100FT =
2018-05-25 22:35 METAR CYOW 252235Z 25008KT 2SM -SHRA OVC040 19/18 A2974 RMK FG1SC7 CVCTV CLD
                 EMBD SLP075 DENSITY ALT 1100FT =
2018-05-25 22:00 METAR CYOW 252200Z 27010KT 10SM -SHRA BKN060 BKN080 OVC110 19/18 A2975 RMK
                 SC5AC1AC2 CVCTV CLD EMBD SLP075 DENSITY ALT 1200FT =
2018-05-25 21:00 METAR CYOW 252100Z 26008KT 15SM -SHRA BKN055 BKN075 OVC110 20/18 A2973 RMK
                 SC5AC1AC2 CVCTV CLD EMBD SLP069 DENSITY ALT 1300FT =
2018-05-25 20:00 METAR CYOW 252000Z 23017G24KT 15SM -SHRA SCT055 BKN075 BKN180 25/15 A2972 RMK
                 SC4AC2AC1 CVCTV CLD EMBD SLP067 DENSITY ALT 1900FT =
2018-05-25 19:00 METAR CYOW 251900Z 23016G24KT 210V270 15SM SCT050 BKN080 BKN180 25/16 A2973 RMK
                 CU4AC2AC1 SLP068 DENSITY ALT 1900FT =
2018-05-25 18:00 METAR CYOW 251800Z 24011G22KT 15SM FEW040 SCT095 BKN260 26/18 A2974 RMK
                 CU2AC2CI3 SLP072 DENSITY ALT 2000FT =
2018-05-25 17:00 METAR CYOW 251700Z 23013KT 15SM FEW030 FEW075 BKN110 BKN260 25/17 A2976 RMK
                 CU1AC1AC4CI2 CU TR SLP080 DENSITY ALT 1800FT =
2018-05-25 16:00 METAR CYOW 251600Z 23011KT 15SM SCT075 BKN120 22/17 A2980 RMK AC4AC3 ACC EMBD
                 SLP091 DENSITY ALT 1500FT =
2018-05-25 15:47 METAR CYOW 251547Z 24011G17KT 15SM SCT055 BKN075 BKN120 21/16 A2980 RMK
                 SC3AC2AC2 CVCTV CLD EMBD SH DIST SE SLP093 DENSITY ALT 1300FT =
2018-05-25 15:27 METAR CYOW 251527Z 23012G19KT 15SM -SHRA BKN055 OVC110 21/15 A2981 RMK SC7AC1
                 CVCTV CLD EMBD SLP096 DENSITY ALT 1300FT =
2018-05-25 15:09 METAR CYOW 251509Z 25014KT 15SM VCSH OVC055 21/15 A2982 RMK SC8 CVCTV CLD EMBD
                 SLP098 DENSITY ALT 1300FT =
2018-05-25 15:00 METAR CYOW 251500Z 25013G18KT 15SM VCSH OVC055 20/15 A2982 RMK SC8 CVCTV CLD
                 EMBD OCNL -SHRA SLP099 DENSITY ALT 1300FT =
2018-05-25 14:49 METAR CYOW 251449Z 25013G19KT 15SM -SHRA OVC065 21/15 A2982 RMK SC8 CVCTV CLD
                 EMBD SLP100 DENSITY ALT 1300FT =
2018-05-25 14:00 METAR CYOW 251400Z 25008KT 15SM BKN065 BKN110 20/15 A2983 RMK SC5AC2 ACC EMBD SH
                 DIST SE SLP101 DENSITY ALT 1200FT =
2018-05-25 13:50 METAR CYOW 251350Z 24008KT 15SM SCT070 BKN110 20/14 A2982 RMK AC4AC3 ACC EMBD
                 SLP100 DENSITY ALT 1200FT =
2018-05-25 13:00 METAR CYOW 251300Z 25011KT 15SM -SHRA SCT085 BKN110 BKN260 21/12 A2984 RMK
                 AC3AC3CI1 ACC EMBD SLP106 DENSITY ALT 1300FT =
2018-05-25 12:00 METAR CYOW 251200Z 23010KT 15SM SCT130 BKN260 20/11 A2985 RMK AC3CI2 SLP108
                 DENSITY ALT 1100FT =
2018-05-25 11:00 METAR CYOW 251100Z 21007KT 15SM FEW090 SCT260 17/11 A2986 RMK AC1CI2 SLP111
                 DENSITY ALT 800FT =
2018-05-25 10:00 METAR CYOW 251000Z 21007KT 15SM FEW100 SCT240 15/10 A2986 RMK AC1CI3 SLP114
                 DENSITY ALT 600FT =
2018-05-25 09:00 METAR CYOW 250900Z 22007KT 15SM FEW100 BKN250 15/09 A2986 RMK AC2CC3 SLP112
                 DENSITY ALT 600FT =
2018-05-25 08:00 METAR CYOW 250800Z 22009KT 15SM SCT090 16/09 A2987 RMK AC4 SLP115 DENSITY ALT
                 700FT =
2018-05-25 07:00 METAR CYOW 250700Z 23009KT 15SM SCT080 BKN090 16/08 A2987 RMK AC4AC1 SLP117
                 DENSITY ALT 700FT =

Support USWX by starting your Amazon purchase here.